sensor_id;sensor_type;location;lat;lon;timestamp;pressure;altitude;pressure_sealevel;temperature
9119;BMP180;4594;50.994;7.126;2023-08-07T00:00:37;100259.00;;;18.80
9119;BMP180;4594;50.994;7.126;2023-08-07T00:03:03;100250.00;;;18.80
9119;BMP180;4594;50.994;7.126;2023-08-07T00:05:29;100240.00;;;18.80
9119;BMP180;4594;50.994;7.126;2023-08-07T00:07:55;100240.00;;;18.80
9119;BMP180;4594;50.994;7.126;2023-08-07T00:10:21;100245.00;;;18.80
9119;BMP180;4594;50.994;7.126;2023-08-07T00:12:46;100227.00;;;18.80
9119;BMP180;4594;50.994;7.126;2023-08-07T00:15:12;100250.00;;;18.80
9119;BMP180;4594;50.994;7.126;2023-08-07T00:17:38;100245.00;;;18.80
9119;BMP180;4594;50.994;7.126;2023-08-07T00:20:05;100254.00;;;18.80
9119;BMP180;4594;50.994;7.126;2023-08-07T00:22:31;100250.00;;;18.70
9119;BMP180;4594;50.994;7.126;2023-08-07T00:24:56;100250.00;;;18.80
9119;BMP180;4594;50.994;7.126;2023-08-07T00:27:22;100267.00;;;18.80
9119;BMP180;4594;50.994;7.126;2023-08-07T00:29:48;100255.00;;;18.80
9119;BMP180;4594;50.994;7.126;2023-08-07T00:32:14;100253.00;;;18.80
9119;BMP180;4594;50.994;7.126;2023-08-07T00:34:39;100262.00;;;18.80
9119;BMP180;4594;50.994;7.126;2023-08-07T00:37:05;100271.00;;;18.70
9119;BMP180;4594;50.994;7.126;2023-08-07T00:39:31;100261.00;;;18.70
9119;BMP180;4594;50.994;7.126;2023-08-07T00:41:57;100269.00;;;18.70
9119;BMP180;4594;50.994;7.126;2023-08-07T00:44:22;100254.00;;;18.70
9119;BMP180;4594;50.994;7.126;2023-08-07T00:46:49;100275.00;;;18.70
9119;BMP180;4594;50.994;7.126;2023-08-07T00:49:16;100270.00;;;18.70
9119;BMP180;4594;50.994;7.126;2023-08-07T00:51:44;100266.00;;;18.70
9119;BMP180;4594;50.994;7.126;2023-08-07T00:54:12;100273.00;;;18.70
9119;BMP180;4594;50.994;7.126;2023-08-07T00:56:40;100272.00;;;18.60
9119;BMP180;4594;50.994;7.126;2023-08-07T00:59:06;100274.00;;;18.70
9119;BMP180;4594;50.994;7.126;2023-08-07T01:01:33;100276.00;;;18.70
9119;BMP180;4594;50.994;7.126;2023-08-07T01:03:59;100282.00;;;18.60
9119;BMP180;4594;50.994;7.126;2023-08-07T01:06:24;100279.00;;;18.60
9119;BMP180;4594;50.994;7.126;2023-08-07T01:08:50;100271.00;;;18.60
9119;BMP180;4594;50.994;7.126;2023-08-07T01:11:33;100269.00;;;18.60
9119;BMP180;4594;50.994;7.126;2023-08-07T01:17:15;100270.00;;;18.60
9119;BMP180;4594;50.994;7.126;2023-08-07T01:19:42;100283.00;;;18.60
9119;BMP180;4594;50.994;7.126;2023-08-07T01:22:12;100287.00;;;18.60
9119;BMP180;4594;50.994;7.126;2023-08-07T01:24:47;100299.00;;;18.60
9119;BMP180;4594;50.994;7.126;2023-08-07T01:30:33;100302.00;;;18.50
9119;BMP180;4594;50.994;7.126;2023-08-07T01:35:54;100300.00;;;18.50
9119;BMP180;4594;50.994;7.126;2023-08-07T01:38:25;100284.00;;;18.50
9119;BMP180;4594;50.994;7.126;2023-08-07T01:40:52;100303.00;;;18.50
9119;BMP180;4594;50.994;7.126;2023-08-07T01:43:19;100281.00;;;18.50
9119;BMP180;4594;50.994;7.126;2023-08-07T01:45:45;100301.00;;;18.50
9119;BMP180;4594;50.994;7.126;2023-08-07T01:48:11;100298.00;;;18.50
9119;BMP180;4594;50.994;7.126;2023-08-07T01:50:38;100273.00;;;18.50
9119;BMP180;4594;50.994;7.126;2023-08-07T01:53:05;100288.00;;;18.50
9119;BMP180;4594;50.994;7.126;2023-08-07T01:55:31;100302.00;;;18.50
9119;BMP180;4594;50.994;7.126;2023-08-07T01:57:57;100284.00;;;18.40
9119;BMP180;4594;50.994;7.126;2023-08-07T02:00:22;100304.00;;;18.40
9119;BMP180;4594;50.994;7.126;2023-08-07T02:02:48;100306.00;;;18.40
9119;BMP180;4594;50.994;7.126;2023-08-07T02:05:15;100301.00;;;18.40
9119;BMP180;4594;50.994;7.126;2023-08-07T02:07:42;100289.00;;;18.40
9119;BMP180;4594;50.994;7.126;2023-08-07T02:10:08;100284.00;;;18.40
9119;BMP180;4594;50.994;7.126;2023-08-07T02:12:33;100311.00;;;18.40
9119;BMP180;4594;50.994;7.126;2023-08-07T02:15:00;100277.00;;;18.40
9119;BMP180;4594;50.994;7.126;2023-08-07T02:17:29;100308.00;;;18.30
9119;BMP180;4594;50.994;7.126;2023-08-07T02:19:58;100305.00;;;18.30
9119;BMP180;4594;50.994;7.126;2023-08-07T02:22:25;100308.00;;;18.30
9119;BMP180;4594;50.994;7.126;2023-08-07T02:24:50;100311.00;;;18.30
9119;BMP180;4594;50.994;7.126;2023-08-07T02:27:16;100312.00;;;18.30
9119;BMP180;4594;50.994;7.126;2023-08-07T02:29:42;100313.00;;;18.30
9119;BMP180;4594;50.994;7.126;2023-08-07T02:32:08;100314.00;;;18.30
9119;BMP180;4594;50.994;7.126;2023-08-07T02:34:33;100303.00;;;18.30
9119;BMP180;4594;50.994;7.126;2023-08-07T02:36:59;100319.00;;;18.30
9119;BMP180;4594;50.994;7.126;2023-08-07T02:39:25;100311.00;;;18.30
9119;BMP180;4594;50.994;7.126;2023-08-07T02:41:51;100330.00;;;18.30
9119;BMP180;4594;50.994;7.126;2023-08-07T02:44:17;100311.00;;;18.30
9119;BMP180;4594;50.994;7.126;2023-08-07T02:46:43;100326.00;;;18.30
9119;BMP180;4594;50.994;7.126;2023-08-07T02:49:09;100308.00;;;18.20
9119;BMP180;4594;50.994;7.126;2023-08-07T02:51:34;100318.00;;;18.20
9119;BMP180;4594;50.994;7.126;2023-08-07T02:54:00;100307.00;;;18.20
9119;BMP180;4594;50.994;7.126;2023-08-07T02:56:26;100318.00;;;18.20
9119;BMP180;4594;50.994;7.126;2023-08-07T02:58:51;100303.00;;;18.20
9119;BMP180;4594;50.994;7.126;2023-08-07T03:01:17;100324.00;;;18.20
9119;BMP180;4594;50.994;7.126;2023-08-07T03:03:43;100313.00;;;18.20
9119;BMP180;4594;50.994;7.126;2023-08-07T03:06:08;100304.00;;;18.20
9119;BMP180;4594;50.994;7.126;2023-08-07T03:08:34;100291.00;;;18.20
9119;BMP180;4594;50.994;7.126;2023-08-07T03:11:00;100312.00;;;18.20
9119;BMP180;4594;50.994;7.126;2023-08-07T03:13:26;100300.00;;;18.20
9119;BMP180;4594;50.994;7.126;2023-08-07T03:16:04;100323.00;;;18.20
9119;BMP180;4594;50.994;7.126;2023-08-07T03:18:30;100314.00;;;18.20
9119;BMP180;4594;50.994;7.126;2023-08-07T03:20:57;100312.00;;;18.20
9119;BMP180;4594;50.994;7.126;2023-08-07T03:23:25;100301.00;;;18.20
9119;BMP180;4594;50.994;7.126;2023-08-07T03:26:01;100331.00;;;18.20
9119;BMP180;4594;50.994;7.126;2023-08-07T03:28:27;100317.00;;;18.20
9119;BMP180;4594;50.994;7.126;2023-08-07T03:30:53;100314.00;;;18.20
9119;BMP180;4594;50.994;7.126;2023-08-07T03:33:18;100287.00;;;18.20
9119;BMP180;4594;50.994;7.126;2023-08-07T03:35:44;100305.00;;;18.20
9119;BMP180;4594;50.994;7.126;2023-08-07T03:38:11;100309.00;;;18.20
9119;BMP180;4594;50.994;7.126;2023-08-07T03:40:36;100326.00;;;18.20
9119;BMP180;4594;50.994;7.126;2023-08-07T03:43:02;100321.00;;;18.20
9119;BMP180;4594;50.994;7.126;2023-08-07T03:45:27;100315.00;;;18.20
9119;BMP180;4594;50.994;7.126;2023-08-07T03:47:53;100314.00;;;18.20
9119;BMP180;4594;50.994;7.126;2023-08-07T03:50:19;100325.00;;;18.10
9119;BMP180;4594;50.994;7.126;2023-08-07T03:52:44;100332.00;;;18.10
9119;BMP180;4594;50.994;7.126;2023-08-07T03:55:10;100333.00;;;18.10
9119;BMP180;4594;50.994;7.126;2023-08-07T03:57:36;100340.00;;;18.10
9119;BMP180;4594;50.994;7.126;2023-08-07T04:00:01;100335.00;;;18.10
9119;BMP180;4594;50.994;7.126;2023-08-07T04:02:28;100314.00;;;18.10
9119;BMP180;4594;50.994;7.126;2023-08-07T04:04:54;100324.00;;;18.10
9119;BMP180;4594;50.994;7.126;2023-08-07T04:07:20;100319.00;;;18.10
9119;BMP180;4594;50.994;7.126;2023-08-07T04:09:46;100324.00;;;18.10
9119;BMP180;4594;50.994;7.126;2023-08-07T04:12:11;100324.00;;;18.10
9119;BMP180;4594;50.994;7.126;2023-08-07T04:14:37;100318.00;;;18.10
9119;BMP180;4594;50.994;7.126;2023-08-07T04:17:03;100338.00;;;18.10
9119;BMP180;4594;50.994;7.126;2023-08-07T04:19:29;100343.00;;;18.10
9119;BMP180;4594;50.994;7.126;2023-08-07T04:21:54;100335.00;;;18.10
9119;BMP180;4594;50.994;7.126;2023-08-07T04:24:20;100325.00;;;18.10
9119;BMP180;4594;50.994;7.126;2023-08-07T04:26:46;100345.00;;;18.10
9119;BMP180;4594;50.994;7.126;2023-08-07T04:29:11;100348.00;;;18.10
9119;BMP180;4594;50.994;7.126;2023-08-07T04:31:37;100341.00;;;18.10
9119;BMP180;4594;50.994;7.126;2023-08-07T04:34:03;100353.00;;;18.10
9119;BMP180;4594;50.994;7.126;2023-08-07T04:36:29;100342.00;;;18.10
9119;BMP180;4594;50.994;7.126;2023-08-07T04:38:54;100306.00;;;18.10
9119;BMP180;4594;50.994;7.126;2023-08-07T04:41:22;100352.00;;;18.10
9119;BMP180;4594;50.994;7.126;2023-08-07T04:43:47;100345.00;;;18.10
9119;BMP180;4594;50.994;7.126;2023-08-07T04:46:14;100335.00;;;18.10
9119;BMP180;4594;50.994;7.126;2023-08-07T04:48:40;100341.00;;;18.10
9119;BMP180;4594;50.994;7.126;2023-08-07T04:51:06;100367.00;;;18.20
9119;BMP180;4594;50.994;7.126;2023-08-07T04:53:32;100337.00;;;18.20
9119;BMP180;4594;50.994;7.126;2023-08-07T04:55:59;100371.00;;;18.20
9119;BMP180;4594;50.994;7.126;2023-08-07T04:58:25;100368.00;;;18.20
9119;BMP180;4594;50.994;7.126;2023-08-07T05:00:58;100366.00;;;18.20
9119;BMP180;4594;50.994;7.126;2023-08-07T05:03:25;100366.00;;;18.20
9119;BMP180;4594;50.994;7.126;2023-08-07T05:05:58;100371.00;;;18.20
9119;BMP180;4594;50.994;7.126;2023-08-07T05:08:25;100358.00;;;18.20
9119;BMP180;4594;50.994;7.126;2023-08-07T05:10:50;100360.00;;;18.30
9119;BMP180;4594;50.994;7.126;2023-08-07T05:13:16;100347.00;;;18.20
9119;BMP180;4594;50.994;7.126;2023-08-07T05:15:41;100364.00;;;18.30
9119;BMP180;4594;50.994;7.126;2023-08-07T05:18:07;100360.00;;;18.20
9119;BMP180;4594;50.994;7.126;2023-08-07T05:20:33;100345.00;;;18.30
9119;BMP180;4594;50.994;7.126;2023-08-07T05:22:58;100356.00;;;18.30
9119;BMP180;4594;50.994;7.126;2023-08-07T05:25:25;100366.00;;;18.30
9119;BMP180;4594;50.994;7.126;2023-08-07T05:27:51;100370.00;;;18.30
9119;BMP180;4594;50.994;7.126;2023-08-07T05:30:16;100342.00;;;18.30
9119;BMP180;4594;50.994;7.126;2023-08-07T05:32:42;100351.00;;;18.30
9119;BMP180;4594;50.994;7.126;2023-08-07T05:35:08;100361.00;;;18.30
9119;BMP180;4594;50.994;7.126;2023-08-07T05:37:35;100380.00;;;18.30
9119;BMP180;4594;50.994;7.126;2023-08-07T05:40:03;100363.00;;;18.30
9119;BMP180;4594;50.994;7.126;2023-08-07T05:42:28;100380.00;;;18.40
9119;BMP180;4594;50.994;7.126;2023-08-07T05:44:54;100365.00;;;18.40
9119;BMP180;4594;50.994;7.126;2023-08-07T05:47:20;100369.00;;;18.40
9119;BMP180;4594;50.994;7.126;2023-08-07T05:49:45;100372.00;;;18.40
9119;BMP180;4594;50.994;7.126;2023-08-07T05:52:11;100368.00;;;18.50
9119;BMP180;4594;50.994;7.126;2023-08-07T05:54:36;100382.00;;;18.50
9119;BMP180;4594;50.994;7.126;2023-08-07T05:57:03;100375.00;;;18.50
9119;BMP180;4594;50.994;7.126;2023-08-07T05:59:28;100387.00;;;18.50
9119;BMP180;4594;50.994;7.126;2023-08-07T06:01:55;100373.00;;;18.50
9119;BMP180;4594;50.994;7.126;2023-08-07T06:04:21;100367.00;;;18.50
9119;BMP180;4594;50.994;7.126;2023-08-07T06:06:47;100378.00;;;18.50
9119;BMP180;4594;50.994;7.126;2023-08-07T06:09:13;100390.00;;;18.50
9119;BMP180;4594;50.994;7.126;2023-08-07T06:11:42;100382.00;;;18.50
9119;BMP180;4594;50.994;7.126;2023-08-07T06:14:08;100382.00;;;18.60
9119;BMP180;4594;50.994;7.126;2023-08-07T06:16:33;100396.00;;;18.60
9119;BMP180;4594;50.994;7.126;2023-08-07T06:18:59;100373.00;;;18.50
9119;BMP180;4594;50.994;7.126;2023-08-07T06:21:25;100384.00;;;18.60
9119;BMP180;4594;50.994;7.126;2023-08-07T06:23:52;100382.00;;;18.50
9119;BMP180;4594;50.994;7.126;2023-08-07T06:26:17;100396.00;;;18.60
9119;BMP180;4594;50.994;7.126;2023-08-07T06:28:43;100392.00;;;18.50
9119;BMP180;4594;50.994;7.126;2023-08-07T06:31:11;100382.00;;;18.50
9119;BMP180;4594;50.994;7.126;2023-08-07T06:33:37;100388.00;;;18.50
9119;BMP180;4594;50.994;7.126;2023-08-07T06:36:04;100384.00;;;18.50
9119;BMP180;4594;50.994;7.126;2023-08-07T06:38:30;100403.00;;;18.50
9119;BMP180;4594;50.994;7.126;2023-08-07T06:40:57;100383.00;;;18.50
9119;BMP180;4594;50.994;7.126;2023-08-07T06:43:22;100416.00;;;18.50
9119;BMP180;4594;50.994;7.126;2023-08-07T06:45:54;100399.00;;;18.50
9119;BMP180;4594;50.994;7.126;2023-08-07T06:48:19;100413.00;;;18.40
9119;BMP180;4594;50.994;7.126;2023-08-07T06:50:50;100430.00;;;18.40
9119;BMP180;4594;50.994;7.126;2023-08-07T06:53:16;100403.00;;;18.40
9119;BMP180;4594;50.994;7.126;2023-08-07T06:55:42;100400.00;;;18.40
9119;BMP180;4594;50.994;7.126;2023-08-07T06:58:08;100405.00;;;18.50
9119;BMP180;4594;50.994;7.126;2023-08-07T07:00:35;100437.00;;;18.50
9119;BMP180;4594;50.994;7.126;2023-08-07T07:03:02;100415.00;;;18.50
9119;BMP180;4594;50.994;7.126;2023-08-07T07:05:29;100426.00;;;18.40
9119;BMP180;4594;50.994;7.126;2023-08-07T07:07:56;100427.00;;;18.50
9119;BMP180;4594;50.994;7.126;2023-08-07T07:10:22;100435.00;;;18.50
9119;BMP180;4594;50.994;7.126;2023-08-07T07:12:48;100423.00;;;18.50
9119;BMP180;4594;50.994;7.126;2023-08-07T07:15:14;100438.00;;;18.50
9119;BMP180;4594;50.994;7.126;2023-08-07T07:17:40;100446.00;;;18.50
9119;BMP180;4594;50.994;7.126;2023-08-07T07:20:07;100444.00;;;18.40
9119;BMP180;4594;50.994;7.126;2023-08-07T07:22:35;100433.00;;;18.50
9119;BMP180;4594;50.994;7.126;2023-08-07T07:25:01;100451.00;;;18.50
9119;BMP180;4594;50.994;7.126;2023-08-07T07:27:27;100448.00;;;18.50
9119;BMP180;4594;50.994;7.126;2023-08-07T07:29:52;100455.00;;;18.50
9119;BMP180;4594;50.994;7.126;2023-08-07T07:32:18;100469.00;;;18.50
9119;BMP180;4594;50.994;7.126;2023-08-07T07:34:44;100473.00;;;18.50
9119;BMP180;4594;50.994;7.126;2023-08-07T07:37:10;100454.00;;;18.50
9119;BMP180;4594;50.994;7.126;2023-08-07T07:39:36;100459.00;;;18.50
9119;BMP180;4594;50.994;7.126;2023-08-07T07:42:02;100455.00;;;18.50
9119;BMP180;4594;50.994;7.126;2023-08-07T07:44:30;100475.00;;;18.50
9119;BMP180;4594;50.994;7.126;2023-08-07T07:46:55;100491.00;;;18.60
9119;BMP180;4594;50.994;7.126;2023-08-07T07:49:21;100483.00;;;18.60
9119;BMP180;4594;50.994;7.126;2023-08-07T07:51:47;100465.00;;;18.60
9119;BMP180;4594;50.994;7.126;2023-08-07T07:54:12;100477.00;;;18.60
9119;BMP180;4594;50.994;7.126;2023-08-07T07:56:38;100470.00;;;18.60
9119;BMP180;4594;50.994;7.126;2023-08-07T07:59:04;100481.00;;;18.60
9119;BMP180;4594;50.994;7.126;2023-08-07T08:01:29;100500.00;;;18.70
9119;BMP180;4594;50.994;7.126;2023-08-07T08:03:55;100478.00;;;18.70
9119;BMP180;4594;50.994;7.126;2023-08-07T08:06:21;100494.00;;;18.70
9119;BMP180;4594;50.994;7.126;2023-08-07T08:08:46;100495.00;;;18.70
9119;BMP180;4594;50.994;7.126;2023-08-07T08:11:13;100511.00;;;18.70
9119;BMP180;4594;50.994;7.126;2023-08-07T08:13:39;100495.00;;;18.70
9119;BMP180;4594;50.994;7.126;2023-08-07T08:16:07;100520.00;;;18.70
9119;BMP180;4594;50.994;7.126;2023-08-07T08:18:32;100515.00;;;18.70
9119;BMP180;4594;50.994;7.126;2023-08-07T08:20:58;100516.00;;;18.80
9119;BMP180;4594;50.994;7.126;2023-08-07T08:23:24;100511.00;;;18.80
9119;BMP180;4594;50.994;7.126;2023-08-07T08:25:50;100536.00;;;18.80
9119;BMP180;4594;50.994;7.126;2023-08-07T08:28:17;100533.00;;;18.90
9119;BMP180;4594;50.994;7.126;2023-08-07T08:30:43;100541.00;;;18.90
9119;BMP180;4594;50.994;7.126;2023-08-07T08:33:08;100548.00;;;18.90
9119;BMP180;4594;50.994;7.126;2023-08-07T08:35:38;100557.00;;;18.90
9119;BMP180;4594;50.994;7.126;2023-08-07T08:38:04;100558.00;;;18.90
9119;BMP180;4594;50.994;7.126;2023-08-07T08:40:30;100574.00;;;18.90
9119;BMP180;4594;50.994;7.126;2023-08-07T08:43:00;100559.00;;;19.00
9119;BMP180;4594;50.994;7.126;2023-08-07T08:45:27;100560.00;;;19.00
9119;BMP180;4594;50.994;7.126;2023-08-07T08:48:00;100575.00;;;18.90
9119;BMP180;4594;50.994;7.126;2023-08-07T08:50:28;100574.00;;;18.90
9119;BMP180;4594;50.994;7.126;2023-08-07T08:52:56;100573.00;;;18.90
9119;BMP180;4594;50.994;7.126;2023-08-07T08:55:23;100577.00;;;19.00
9119;BMP180;4594;50.994;7.126;2023-08-07T08:57:49;100595.00;;;19.00
9119;BMP180;4594;50.994;7.126;2023-08-07T09:00:16;100571.00;;;19.00
9119;BMP180;4594;50.994;7.126;2023-08-07T09:02:50;100594.00;;;19.00
9119;BMP180;4594;50.994;7.126;2023-08-07T09:05:18;100572.00;;;19.10
9119;BMP180;4594;50.994;7.126;2023-08-07T09:07:45;100577.00;;;19.10
9119;BMP180;4594;50.994;7.126;2023-08-07T09:10:13;100594.00;;;19.20
9119;BMP180;4594;50.994;7.126;2023-08-07T09:12:48;100594.00;;;19.20
9119;BMP180;4594;50.994;7.126;2023-08-07T09:15:18;100595.00;;;19.20
9119;BMP180;4594;50.994;7.126;2023-08-07T09:17:46;100592.00;;;19.20
9119;BMP180;4594;50.994;7.126;2023-08-07T09:20:12;100615.00;;;19.20
9119;BMP180;4594;50.994;7.126;2023-08-07T09:22:42;100597.00;;;19.20
9119;BMP180;4594;50.994;7.126;2023-08-07T09:25:08;100599.00;;;19.30
9119;BMP180;4594;50.994;7.126;2023-08-07T09:27:40;100610.00;;;19.20
9119;BMP180;4594;50.994;7.126;2023-08-07T09:30:09;100613.00;;;19.20
9119;BMP180;4594;50.994;7.126;2023-08-07T09:32:36;100625.00;;;19.20
9119;BMP180;4594;50.994;7.126;2023-08-07T09:35:06;100616.00;;;19.20
9119;BMP180;4594;50.994;7.126;2023-08-07T09:37:36;100598.00;;;19.20
9119;BMP180;4594;50.994;7.126;2023-08-07T09:40:03;100600.00;;;19.20
9119;BMP180;4594;50.994;7.126;2023-08-07T09:42:31;100613.00;;;19.30
9119;BMP180;4594;50.994;7.126;2023-08-07T09:45:00;100606.00;;;19.30
9119;BMP180;4594;50.994;7.126;2023-08-07T09:47:27;100618.00;;;19.40
9119;BMP180;4594;50.994;7.126;2023-08-07T09:49:54;100629.00;;;19.60
9119;BMP180;4594;50.994;7.126;2023-08-07T09:52:21;100623.00;;;19.70
9119;BMP180;4594;50.994;7.126;2023-08-07T09:54:47;100617.00;;;19.80
9119;BMP180;4594;50.994;7.126;2023-08-07T09:57:14;100619.00;;;20.10
9119;BMP180;4594;50.994;7.126;2023-08-07T09:59:40;100615.00;;;20.40
9119;BMP180;4594;50.994;7.126;2023-08-07T10:02:07;100636.00;;;20.60
9119;BMP180;4594;50.994;7.126;2023-08-07T10:04:35;100634.00;;;20.70
9119;BMP180;4594;50.994;7.126;2023-08-07T10:07:01;100627.00;;;20.80
9119;BMP180;4594;50.994;7.126;2023-08-07T10:09:28;100637.00;;;20.80
9119;BMP180;4594;50.994;7.126;2023-08-07T10:11:54;100642.00;;;20.80
9119;BMP180;4594;50.994;7.126;2023-08-07T10:14:22;100643.00;;;21.00
9119;BMP180;4594;50.994;7.126;2023-08-07T10:16:49;100658.00;;;21.10
9119;BMP180;4594;50.994;7.126;2023-08-07T10:19:17;100645.00;;;21.30
9119;BMP180;4594;50.994;7.126;2023-08-07T10:21:43;100651.00;;;21.40
9119;BMP180;4594;50.994;7.126;2023-08-07T10:24:11;100637.00;;;21.60
9119;BMP180;4594;50.994;7.126;2023-08-07T10:26:44;100646.00;;;21.80
9119;BMP180;4594;50.994;7.126;2023-08-07T10:29:17;100651.00;;;21.90
9119;BMP180;4594;50.994;7.126;2023-08-07T10:31:45;100652.00;;;22.00
9119;BMP180;4594;50.994;7.126;2023-08-07T10:34:12;100662.00;;;22.10
9119;BMP180;4594;50.994;7.126;2023-08-07T10:36:39;100667.00;;;22.20
9119;BMP180;4594;50.994;7.126;2023-08-07T10:39:11;100665.00;;;22.20
9119;BMP180;4594;50.994;7.126;2023-08-07T10:41:48;100678.00;;;22.20
9119;BMP180;4594;50.994;7.126;2023-08-07T10:44:25;100656.00;;;22.50
9119;BMP180;4594;50.994;7.126;2023-08-07T10:46:57;100659.00;;;22.70
9119;BMP180;4594;50.994;7.126;2023-08-07T10:49:38;100650.00;;;22.90
9119;BMP180;4594;50.994;7.126;2023-08-07T10:52:14;100647.00;;;23.40
9119;BMP180;4594;50.994;7.126;2023-08-07T10:54:49;100648.00;;;24.40
9119;BMP180;4594;50.994;7.126;2023-08-07T10:57:18;100606.00;;;25.20
9119;BMP180;4594;50.994;7.126;2023-08-07T11:02:29;100646.00;;;26.50
9119;BMP180;4594;50.994;7.126;2023-08-07T11:04:55;100636.00;;;26.60
9119;BMP180;4594;50.994;7.126;2023-08-07T11:07:26;100656.00;;;26.60
9119;BMP180;4594;50.994;7.126;2023-08-07T11:09:54;100627.00;;;26.70
9119;BMP180;4594;50.994;7.126;2023-08-07T11:12:20;100642.00;;;27.30
9119;BMP180;4594;50.994;7.126;2023-08-07T11:14:46;100652.00;;;28.30
9119;BMP180;4594;50.994;7.126;2023-08-07T11:17:12;100634.00;;;28.80
9119;BMP180;4594;50.994;7.126;2023-08-07T11:19:39;100659.00;;;28.70
9119;BMP180;4594;50.994;7.126;2023-08-07T11:22:05;100647.00;;;28.40
9119;BMP180;4594;50.994;7.126;2023-08-07T11:24:31;100663.00;;;28.00
9119;BMP180;4594;50.994;7.126;2023-08-07T11:26:56;100658.00;;;27.60
9119;BMP180;4594;50.994;7.126;2023-08-07T11:29:24;100632.00;;;27.50
9119;BMP180;4594;50.994;7.126;2023-08-07T11:31:53;100624.00;;;28.20
9119;BMP180;4594;50.994;7.126;2023-08-07T11:34:20;100661.00;;;28.80
9119;BMP180;4594;50.994;7.126;2023-08-07T11:36:46;100650.00;;;28.80
9119;BMP180;4594;50.994;7.126;2023-08-07T11:39:13;100653.00;;;28.50
9119;BMP180;4594;50.994;7.126;2023-08-07T11:41:39;100646.00;;;28.10
9119;BMP180;4594;50.994;7.126;2023-08-07T11:44:08;100662.00;;;27.80
9119;BMP180;4594;50.994;7.126;2023-08-07T11:46:34;100655.00;;;27.50
9119;BMP180;4594;50.994;7.126;2023-08-07T11:49:01;100658.00;;;27.30
9119;BMP180;4594;50.994;7.126;2023-08-07T11:51:27;100656.00;;;27.00
9119;BMP180;4594;50.994;7.126;2023-08-07T11:53:54;100655.00;;;26.70
9119;BMP180;4594;50.994;7.126;2023-08-07T11:56:22;100655.00;;;26.50
9119;BMP180;4594;50.994;7.126;2023-08-07T11:58:51;100648.00;;;26.30
9119;BMP180;4594;50.994;7.126;2023-08-07T12:01:22;100654.00;;;26.20
9119;BMP180;4594;50.994;7.126;2023-08-07T12:04:08;100644.00;;;26.00
9119;BMP180;4594;50.994;7.126;2023-08-07T12:06:35;100630.00;;;25.90
9119;BMP180;4594;50.994;7.126;2023-08-07T12:09:02;100647.00;;;25.80
9119;BMP180;4594;50.994;7.126;2023-08-07T12:11:31;100641.00;;;25.70
9119;BMP180;4594;50.994;7.126;2023-08-07T12:14:00;100648.00;;;25.60
9119;BMP180;4594;50.994;7.126;2023-08-07T12:16:33;100657.00;;;25.50
9119;BMP180;4594;50.994;7.126;2023-08-07T12:18:59;100643.00;;;25.40
9119;BMP180;4594;50.994;7.126;2023-08-07T12:21:26;100671.00;;;25.40
9119;BMP180;4594;50.994;7.126;2023-08-07T12:23:57;100656.00;;;25.30
9119;BMP180;4594;50.994;7.126;2023-08-07T12:26:23;100652.00;;;25.30
9119;BMP180;4594;50.994;7.126;2023-08-07T12:28:48;100655.00;;;25.20
9119;BMP180;4594;50.994;7.126;2023-08-07T12:31:15;100641.00;;;25.20
9119;BMP180;4594;50.994;7.126;2023-08-07T12:33:42;100654.00;;;25.20
9119;BMP180;4594;50.994;7.126;2023-08-07T12:36:08;100657.00;;;25.20
9119;BMP180;4594;50.994;7.126;2023-08-07T12:38:35;100645.00;;;25.20
9119;BMP180;4594;50.994;7.126;2023-08-07T12:41:01;100648.00;;;25.20
9119;BMP180;4594;50.994;7.126;2023-08-07T12:43:28;100660.00;;;25.20
9119;BMP180;4594;50.994;7.126;2023-08-07T12:45:54;100652.00;;;25.30
9119;BMP180;4594;50.994;7.126;2023-08-07T12:48:20;100658.00;;;25.30
9119;BMP180;4594;50.994;7.126;2023-08-07T12:50:45;100655.00;;;25.30
9119;BMP180;4594;50.994;7.126;2023-08-07T12:53:11;100657.00;;;25.20
9119;BMP180;4594;50.994;7.126;2023-08-07T12:55:37;100649.00;;;25.20
9119;BMP180;4594;50.994;7.126;2023-08-07T12:58:02;100647.00;;;25.10
9119;BMP180;4594;50.994;7.126;2023-08-07T13:00:28;100650.00;;;25.00
9119;BMP180;4594;50.994;7.126;2023-08-07T13:02:54;100652.00;;;25.00
9119;BMP180;4594;50.994;7.126;2023-08-07T13:05:21;100658.00;;;25.00
9119;BMP180;4594;50.994;7.126;2023-08-07T13:07:48;100658.00;;;25.00
9119;BMP180;4594;50.994;7.126;2023-08-07T13:10:16;100645.00;;;25.00
9119;BMP180;4594;50.994;7.126;2023-08-07T13:12:44;100668.00;;;25.00
9119;BMP180;4594;50.994;7.126;2023-08-07T13:15:14;100659.00;;;25.00
9119;BMP180;4594;50.994;7.126;2023-08-07T13:17:42;100660.00;;;24.90
9119;BMP180;4594;50.994;7.126;2023-08-07T13:20:09;100668.00;;;24.80
9119;BMP180;4594;50.994;7.126;2023-08-07T13:22:43;100655.00;;;24.70
9119;BMP180;4594;50.994;7.126;2023-08-07T13:25:12;100650.00;;;24.70
9119;BMP180;4594;50.994;7.126;2023-08-07T13:27:39;100667.00;;;24.70
9119;BMP180;4594;50.994;7.126;2023-08-07T13:30:06;100655.00;;;24.60
9119;BMP180;4594;50.994;7.126;2023-08-07T13:32:33;100667.00;;;24.60
9119;BMP180;4594;50.994;7.126;2023-08-07T13:34:58;100676.00;;;24.50
9119;BMP180;4594;50.994;7.126;2023-08-07T13:37:24;100664.00;;;24.50
9119;BMP180;4594;50.994;7.126;2023-08-07T13:39:50;100674.00;;;24.40
9119;BMP180;4594;50.994;7.126;2023-08-07T13:42:18;100657.00;;;24.30
9119;BMP180;4594;50.994;7.126;2023-08-07T13:44:44;100682.00;;;24.20
9119;BMP180;4594;50.994;7.126;2023-08-07T13:47:10;100671.00;;;24.10
9119;BMP180;4594;50.994;7.126;2023-08-07T13:49:37;100672.00;;;24.10
9119;BMP180;4594;50.994;7.126;2023-08-07T13:52:03;100681.00;;;24.10
9119;BMP180;4594;50.994;7.126;2023-08-07T13:54:29;100663.00;;;24.00
9119;BMP180;4594;50.994;7.126;2023-08-07T13:56:55;100681.00;;;24.00
9119;BMP180;4594;50.994;7.126;2023-08-07T13:59:21;100670.00;;;23.90
9119;BMP180;4594;50.994;7.126;2023-08-07T14:01:46;100673.00;;;23.90
9119;BMP180;4594;50.994;7.126;2023-08-07T14:04:12;100684.00;;;23.80
9119;BMP180;4594;50.994;7.126;2023-08-07T14:06:40;100692.00;;;23.80
9119;BMP180;4594;50.994;7.126;2023-08-07T14:09:07;100681.00;;;23.80
9119;BMP180;4594;50.994;7.126;2023-08-07T14:11:35;100671.00;;;23.90
9119;BMP180;4594;50.994;7.126;2023-08-07T14:14:01;100672.00;;;23.90
9119;BMP180;4594;50.994;7.126;2023-08-07T14:16:26;100680.00;;;24.00
9119;BMP180;4594;50.994;7.126;2023-08-07T14:18:52;100677.00;;;24.10
9119;BMP180;4594;50.994;7.126;2023-08-07T14:21:18;100686.00;;;24.20
9119;BMP180;4594;50.994;7.126;2023-08-07T14:23:44;100688.00;;;24.20
9119;BMP180;4594;50.994;7.126;2023-08-07T14:26:12;100695.00;;;24.30
9119;BMP180;4594;50.994;7.126;2023-08-07T14:28:38;100691.00;;;24.40
9119;BMP180;4594;50.994;7.126;2023-08-07T14:31:08;100685.00;;;24.60